createdAt,value
2023-04-16T00:13:38.975Z,100380.32
2023-04-16T00:28:56.098Z,100398.90
2023-04-16T00:43:58.964Z,100398.00
2023-04-16T00:59:01.748Z,100410.23
2023-04-16T01:14:04.265Z,100413.45
2023-04-16T01:29:06.786Z,100417.05
2023-04-16T01:44:09.644Z,100416.52
2023-04-16T01:59:12.373Z,100413.89
2023-04-16T02:14:14.734Z,100415.09
2023-04-16T02:29:17.195Z,100425.11
2023-04-16T02:44:19.908Z,100427.04
2023-04-16T02:59:22.275Z,100432.93
2023-04-16T03:26:59.058Z,100451.13
2023-04-16T03:42:03.742Z,100459.27
2023-04-16T04:12:26.624Z,100490.24
2023-04-16T04:27:30.833Z,100505.26
2023-04-16T04:42:34.594Z,100517.00
2023-04-16T04:57:38.484Z,100531.05
2023-04-16T05:12:42.269Z,100544.34
2023-04-16T05:27:46.366Z,100555.83
2023-04-16T05:42:50.404Z,100564.36
2023-04-16T05:58:08.790Z,100575.19
2023-04-16T06:13:12.982Z,100582.64
2023-04-16T06:28:17.261Z,100597.71
2023-04-16T06:43:21.898Z,100620.41
2023-04-16T06:58:26.858Z,100632.98
2023-04-16T07:13:31.100Z,100642.64
2023-04-16T07:28:38.250Z,100651.67
2023-04-16T07:43:42.986Z,100666.48
2023-04-16T07:58:47.713Z,100675.80
2023-04-16T08:13:51.819Z,100677.50
2023-04-16T08:28:56.250Z,100690.85
2023-04-16T08:44:08.188Z,100701.18
2023-04-16T08:59:13.258Z,100717.84
2023-04-16T09:14:18.811Z,100728.95
2023-04-16T09:29:42.573Z,100740.77
2023-04-16T09:44:50.951Z,100739.13
2023-04-16T10:00:05.594Z,100742.19
2023-04-16T10:15:11.597Z,100753.72
2023-04-16T10:30:19.760Z,100763.70
2023-04-16T10:45:37.933Z,100766.39
2023-04-16T11:00:54.742Z,100773.23
2023-04-16T11:16:00.288Z,100777.35
2023-04-16T11:31:18.360Z,100773.53
2023-04-16T11:46:27.870Z,100780.88
2023-04-16T12:01:36.267Z,100785.52
2023-04-16T12:16:40.277Z,100793.45
2023-04-16T12:31:58.390Z,100806.11
2023-04-16T12:47:02.584Z,100805.56
2023-04-16T13:02:08.043Z,100816.67
2023-04-16T13:17:13.029Z,100824.84
2023-04-16T13:32:30.942Z,100826.33
2023-04-16T13:47:36.736Z,100826.74
2023-04-16T14:02:43.927Z,100832.41
2023-04-16T14:17:48.715Z,100835.96
2023-04-16T14:32:54.667Z,100837.95
2023-04-16T14:47:58.824Z,100839.95
2023-04-16T15:03:17.586Z,100843.17
2023-04-16T15:18:22.649Z,100854.78
2023-04-16T15:33:27.442Z,100865.89
2023-04-16T15:48:32.190Z,100869.30
2023-04-16T16:03:40.086Z,100875.85
2023-04-16T16:18:46.203Z,100892.83
2023-04-16T16:34:07.012Z,100901.44
2023-04-16T16:49:12.305Z,100914.16
2023-04-16T17:04:20.324Z,100921.83
2023-04-16T17:19:39.407Z,100937.67
2023-04-16T17:34:46.438Z,100945.61
2023-04-16T17:49:55.314Z,100957.66
2023-04-16T18:05:14.191Z,100974.66
2023-04-16T18:20:19.937Z,100992.11
2023-04-16T18:35:25.425Z,101011.76
2023-04-16T18:50:30.421Z,101027.73
2023-04-16T19:05:35.463Z,101037.95
2023-04-16T19:21:01.438Z,101046.89
2023-04-16T19:36:06.832Z,101055.41
2023-04-16T19:51:13.374Z,101048.71
2023-04-16T20:06:22.119Z,101054.70
2023-04-16T20:21:28.191Z,101063.66
2023-04-16T20:36:32.956Z,101062.67
2023-04-16T20:51:38.542Z,101077.14
2023-04-16T21:06:43.944Z,101086.73
2023-04-16T21:21:48.626Z,101089.98
2023-04-16T21:36:52.806Z,101091.40
2023-04-16T21:51:59.322Z,101087.73
2023-04-16T22:07:05.196Z,101090.27
2023-04-16T22:22:09.472Z,101099.50
2023-04-16T22:37:13.830Z,101101.08
2023-04-16T22:52:18.105Z,101100.76
2023-04-16T23:07:23.095Z,101101.67
2023-04-16T23:22:27.272Z,101099.45
2023-04-16T23:37:31.396Z,101100.73
2023-04-16T23:52:35.577Z,101099.88
